aviador You're here:

K2C8 Decoded Metar

in
Report Time2017-07-23 06:55:00
UTC Time2017-07-23 06:51:47
Flight Rules vfr VFR
Wind340° at 09 Gusting to 15 kt
W.Rank340° ranks 1
Current wind is below 340° avg. (10.6)
Visibility9999 m
Phenomena:N/A
Clouds:Overcast 036 Hf
Expected CloudBase > 800 ft AGL from Temp-Dew spread
Ceiling3,600 ft
Temp18°C
Dew Point16°C (88% RH)
AAT16.7°C
QNH1014 hPa
Raw Report
METAR K2C8 230655Z AUTO 34009G15KT 10SM OVC036 18/16 A2993 RMK AO2=

Extra information for K2C8:More info

Social comments